sensor_id;sensor_type;location;lat;lon;timestamp;P1;durP1;ratioP1;P2;durP2;ratioP2
27576;SDS011;15011;53.380;10.034;2022-08-18T00:02:04;12.77;;;9.90;;
27576;SDS011;15011;53.380;10.034;2022-08-18T00:07:12;12.45;;;9.80;;
27576;SDS011;15011;53.380;10.034;2022-08-18T00:12:16;14.05;;;11.73;;
27576;SDS011;15011;53.380;10.034;2022-08-18T00:17:18;10.20;;;8.95;;
27576;SDS011;15011;53.380;10.034;2022-08-18T00:22:19;10.38;;;8.85;;
27576;SDS011;15011;53.380;10.034;2022-08-18T00:27:21;12.27;;;9.32;;
27576;SDS011;15011;53.380;10.034;2022-08-18T00:32:25;11.52;;;9.23;;
27576;SDS011;15011;53.380;10.034;2022-08-18T00:37:32;13.27;;;10.00;;
27576;SDS011;15011;53.380;10.034;2022-08-18T00:42:36;12.13;;;9.95;;
27576;SDS011;15011;53.380;10.034;2022-08-18T00:47:39;14.93;;;10.23;;
27576;SDS011;15011;53.380;10.034;2022-08-18T00:52:42;10.90;;;9.30;;
27576;SDS011;15011;53.380;10.034;2022-08-18T00:57:45;14.85;;;13.20;;
27576;SDS011;15011;53.380;10.034;2022-08-18T01:02:50;12.50;;;11.03;;
27576;SDS011;15011;53.380;10.034;2022-08-18T01:07:53;12.75;;;11.23;;
27576;SDS011;15011;53.380;10.034;2022-08-18T01:12:54;14.80;;;13.20;;
27576;SDS011;15011;53.380;10.034;2022-08-18T01:17:58;12.90;;;11.45;;
27576;SDS011;15011;53.380;10.034;2022-08-18T01:23:19;15.25;;;11.20;;
27576;SDS011;15011;53.380;10.034;2022-08-18T01:28:20;14.70;;;12.82;;
27576;SDS011;15011;53.380;10.034;2022-08-18T01:33:27;17.60;;;13.68;;
27576;SDS011;15011;53.380;10.034;2022-08-18T01:38:31;12.30;;;11.00;;
27576;SDS011;15011;53.380;10.034;2022-08-18T01:43:33;13.77;;;11.13;;
27576;SDS011;15011;53.380;10.034;2022-08-18T01:48:36;12.70;;;11.20;;
27576;SDS011;15011;53.380;10.034;2022-08-18T01:53:36;16.15;;;12.70;;
27576;SDS011;15011;53.380;10.034;2022-08-18T01:58:37;14.63;;;12.90;;
27576;SDS011;15011;53.380;10.034;2022-08-18T02:03:38;16.58;;;12.43;;
27576;SDS011;15011;53.380;10.034;2022-08-18T02:08:40;15.02;;;11.40;;
27576;SDS011;15011;53.380;10.034;2022-08-18T02:13:41;16.33;;;11.48;;
27576;SDS011;15011;53.380;10.034;2022-08-18T02:18:41;13.75;;;12.35;;
27576;SDS011;15011;53.380;10.034;2022-08-18T02:23:42;13.98;;;11.75;;
27576;SDS011;15011;53.380;10.034;2022-08-18T02:28:43;17.53;;;12.23;;
27576;SDS011;15011;53.380;10.034;2022-08-18T02:33:44;23.33;;;14.93;;
27576;SDS011;15011;53.380;10.034;2022-08-18T02:38:45;15.20;;;11.07;;
27576;SDS011;15011;53.380;10.034;2022-08-18T02:43:45;10.95;;;9.88;;
27576;SDS011;15011;53.380;10.034;2022-08-18T02:48:47;11.43;;;10.33;;
27576;SDS011;15011;53.380;10.034;2022-08-18T02:53:49;14.88;;;9.98;;
27576;SDS011;15011;53.380;10.034;2022-08-18T02:58:52;13.90;;;10.90;;
27576;SDS011;15011;53.380;10.034;2022-08-18T03:03:54;13.52;;;12.18;;
27576;SDS011;15011;53.380;10.034;2022-08-18T03:08:55;13.25;;;11.10;;
27576;SDS011;15011;53.380;10.034;2022-08-18T03:13:56;12.93;;;10.27;;
27576;SDS011;15011;53.380;10.034;2022-08-18T03:18:57;16.02;;;13.05;;
27576;SDS011;15011;53.380;10.034;2022-08-18T03:23:59;15.25;;;11.80;;
27576;SDS011;15011;53.380;10.034;2022-08-18T03:28:59;14.18;;;11.32;;
27576;SDS011;15011;53.380;10.034;2022-08-18T03:34:00;12.57;;;10.07;;
27576;SDS011;15011;53.380;10.034;2022-08-18T03:39:02;12.50;;;11.20;;
27576;SDS011;15011;53.380;10.034;2022-08-18T03:44:06;23.80;;;15.48;;
27576;SDS011;15011;53.380;10.034;2022-08-18T03:49:07;18.85;;;13.00;;
27576;SDS011;15011;53.380;10.034;2022-08-18T03:54:08;16.97;;;12.73;;
27576;SDS011;15011;53.380;10.034;2022-08-18T03:59:11;20.60;;;14.00;;
27576;SDS011;15011;53.380;10.034;2022-08-18T04:04:15;16.83;;;12.55;;
27576;SDS011;15011;53.380;10.034;2022-08-18T04:09:20;13.00;;;10.57;;
27576;SDS011;15011;53.380;10.034;2022-08-18T04:14:22;14.70;;;12.88;;
27576;SDS011;15011;53.380;10.034;2022-08-18T04:19:24;15.80;;;12.98;;
27576;SDS011;15011;53.380;10.034;2022-08-18T04:24:25;13.68;;;11.10;;
27576;SDS011;15011;53.380;10.034;2022-08-18T04:34:27;13.27;;;10.27;;
27576;SDS011;15011;53.380;10.034;2022-08-18T04:39:28;12.47;;;11.17;;
27576;SDS011;15011;53.380;10.034;2022-08-18T04:44:29;13.43;;;10.87;;
27576;SDS011;15011;53.380;10.034;2022-08-18T04:49:29;15.40;;;11.27;;
27576;SDS011;15011;53.380;10.034;2022-08-18T04:54:31;14.43;;;12.60;;
27576;SDS011;15011;53.380;10.034;2022-08-18T04:59:36;11.85;;;10.65;;
27576;SDS011;15011;53.380;10.034;2022-08-18T05:04:37;17.98;;;12.70;;
27576;SDS011;15011;53.380;10.034;2022-08-18T05:09:40;14.23;;;12.73;;
27576;SDS011;15011;53.380;10.034;2022-08-18T05:14:41;25.08;;;18.92;;
27576;SDS011;15011;53.380;10.034;2022-08-18T05:19:45;26.67;;;18.52;;
27576;SDS011;15011;53.380;10.034;2022-08-18T05:24:46;19.45;;;16.30;;
27576;SDS011;15011;53.380;10.034;2022-08-18T05:29:46;23.73;;;17.30;;
27576;SDS011;15011;53.380;10.034;2022-08-18T05:34:48;23.13;;;18.93;;
27576;SDS011;15011;53.380;10.034;2022-08-18T05:39:51;23.40;;;19.20;;
27576;SDS011;15011;53.380;10.034;2022-08-18T05:44:56;28.42;;;21.45;;
27576;SDS011;15011;53.380;10.034;2022-08-18T05:50:01;25.75;;;20.35;;
27576;SDS011;15011;53.380;10.034;2022-08-18T05:55:06;26.67;;;20.25;;
27576;SDS011;15011;53.380;10.034;2022-08-18T06:00:39;34.05;;;23.52;;
27576;SDS011;15011;53.380;10.034;2022-08-18T06:11:02;38.38;;;27.40;;
27576;SDS011;15011;53.380;10.034;2022-08-18T06:16:11;75.93;;;39.50;;
27576;SDS011;15011;53.380;10.034;2022-08-18T06:32:10;170.82;;;61.63;;
27576;SDS011;15011;53.380;10.034;2022-08-18T06:37:38;165.48;;;61.08;;
27576;SDS011;15011;53.380;10.034;2022-08-18T06:43:02;187.93;;;59.55;;
27576;SDS011;15011;53.380;10.034;2022-08-18T06:48:11;173.43;;;63.15;;
27576;SDS011;15011;53.380;10.034;2022-08-18T06:53:39;152.15;;;57.00;;
27576;SDS011;15011;53.380;10.034;2022-08-18T06:58:51;174.35;;;56.35;;
27576;SDS011;15011;53.380;10.034;2022-08-18T07:03:54;142.93;;;50.33;;
27576;SDS011;15011;53.380;10.034;2022-08-18T07:09:16;126.00;;;49.78;;
27576;SDS011;15011;53.380;10.034;2022-08-18T07:14:21;101.95;;;46.97;;
27576;SDS011;15011;53.380;10.034;2022-08-18T07:19:29;134.75;;;52.80;;
27576;SDS011;15011;53.380;10.034;2022-08-18T07:24:31;120.38;;;50.72;;
27576;SDS011;15011;53.380;10.034;2022-08-18T07:29:35;108.07;;;48.45;;
27576;SDS011;15011;53.380;10.034;2022-08-18T07:34:42;102.07;;;47.85;;
27576;SDS011;15011;53.380;10.034;2022-08-18T07:39:48;117.50;;;51.53;;
27576;SDS011;15011;53.380;10.034;2022-08-18T07:45:03;105.20;;;49.10;;
27576;SDS011;15011;53.380;10.034;2022-08-18T07:50:08;92.25;;;45.35;;
27576;SDS011;15011;53.380;10.034;2022-08-18T07:55:31;100.03;;;46.57;;
27576;SDS011;15011;53.380;10.034;2022-08-18T08:00:39;91.07;;;44.47;;
27576;SDS011;15011;53.380;10.034;2022-08-18T08:05:48;85.03;;;44.50;;
27576;SDS011;15011;53.380;10.034;2022-08-18T08:11:15;92.30;;;45.40;;
27576;SDS011;15011;53.380;10.034;2022-08-18T08:16:38;82.22;;;43.00;;
27576;SDS011;15011;53.380;10.034;2022-08-18T08:22:51;93.82;;;46.38;;
27576;SDS011;15011;53.380;10.034;2022-08-18T08:27:22;70.95;;;42.97;;
27576;SDS011;15011;53.380;10.034;2022-08-18T08:37:39;71.28;;;43.33;;
27576;SDS011;15011;53.380;10.034;2022-08-18T08:42:48;75.90;;;41.95;;
27576;SDS011;15011;53.380;10.034;2022-08-18T08:58:36;58.75;;;37.78;;
27576;SDS011;15011;53.380;10.034;2022-08-18T09:03:44;43.78;;;31.25;;
27576;SDS011;15011;53.380;10.034;2022-08-18T09:24:49;43.88;;;30.65;;
27576;SDS011;15011;53.380;10.034;2022-08-18T09:29:53;45.30;;;30.67;;
27576;SDS011;15011;53.380;10.034;2022-08-18T09:35:13;40.35;;;26.00;;
27576;SDS011;15011;53.380;10.034;2022-08-18T09:40:16;37.38;;;26.23;;
27576;SDS011;15011;53.380;10.034;2022-08-18T09:56:54;36.38;;;25.83;;
27576;SDS011;15011;53.380;10.034;2022-08-18T10:01:54;34.85;;;25.20;;
27576;SDS011;15011;53.380;10.034;2022-08-18T10:07:12;35.22;;;25.85;;
27576;SDS011;15011;53.380;10.034;2022-08-18T10:12:30;32.85;;;24.58;;
27576;SDS011;15011;53.380;10.034;2022-08-18T10:22:46;38.78;;;28.23;;
27576;SDS011;15011;53.380;10.034;2022-08-18T10:27:52;34.75;;;26.08;;
27576;SDS011;15011;53.380;10.034;2022-08-18T10:32:54;33.30;;;24.73;;
27576;SDS011;15011;53.380;10.034;2022-08-18T10:37:55;31.00;;;24.10;;
27576;SDS011;15011;53.380;10.034;2022-08-18T10:48:30;31.02;;;22.90;;
27576;SDS011;15011;53.380;10.034;2022-08-18T10:59:08;27.70;;;20.73;;
27576;SDS011;15011;53.380;10.034;2022-08-18T11:09:41;28.88;;;19.63;;
27576;SDS011;15011;53.380;10.034;2022-08-18T11:14:49;21.98;;;18.17;;
27576;SDS011;15011;53.380;10.034;2022-08-18T11:20:26;24.88;;;16.83;;
27576;SDS011;15011;53.380;10.034;2022-08-18T11:25:30;20.80;;;17.30;;
27576;SDS011;15011;53.380;10.034;2022-08-18T11:30:33;22.63;;;17.40;;
27576;SDS011;15011;53.380;10.034;2022-08-18T11:35:53;22.27;;;15.77;;
27576;SDS011;15011;53.380;10.034;2022-08-18T11:41:13;19.13;;;15.00;;
27576;SDS011;15011;53.380;10.034;2022-08-18T11:51:25;17.70;;;14.55;;
27576;SDS011;15011;53.380;10.034;2022-08-18T11:56:31;15.60;;;11.32;;
27576;SDS011;15011;53.380;10.034;2022-08-18T12:11:53;12.68;;;10.15;;
27576;SDS011;15011;53.380;10.034;2022-08-18T12:16:55;14.48;;;9.23;;
27576;SDS011;15011;53.380;10.034;2022-08-18T12:21:57;8.73;;;7.83;;
27576;SDS011;15011;53.380;10.034;2022-08-18T12:26:59;11.70;;;7.97;;
27576;SDS011;15011;53.380;10.034;2022-08-18T12:31:59;13.57;;;10.03;;
27576;SDS011;15011;53.380;10.034;2022-08-18T12:37:00;9.20;;;8.27;;
27576;SDS011;15011;53.380;10.034;2022-08-18T12:42:01;15.18;;;9.48;;
27576;SDS011;15011;53.380;10.034;2022-08-18T12:47:02;11.10;;;8.37;;
27576;SDS011;15011;53.380;10.034;2022-08-18T12:52:07;11.40;;;8.98;;
27576;SDS011;15011;53.380;10.034;2022-08-18T12:57:10;11.20;;;8.70;;
27576;SDS011;15011;53.380;10.034;2022-08-18T13:02:13;9.30;;;7.65;;
27576;SDS011;15011;53.380;10.034;2022-08-18T13:07:14;11.63;;;7.95;;
27576;SDS011;15011;53.380;10.034;2022-08-18T13:12:15;11.03;;;7.60;;
27576;SDS011;15011;53.380;10.034;2022-08-18T13:17:17;10.95;;;7.93;;
27576;SDS011;15011;53.380;10.034;2022-08-18T13:22:19;15.75;;;8.77;;
27576;SDS011;15011;53.380;10.034;2022-08-18T13:27:20;8.23;;;7.03;;
27576;SDS011;15011;53.380;10.034;2022-08-18T13:32:21;9.48;;;7.03;;
27576;SDS011;15011;53.380;10.034;2022-08-18T13:37:23;7.65;;;6.50;;
27576;SDS011;15011;53.380;10.034;2022-08-18T13:42:25;10.45;;;7.72;;
27576;SDS011;15011;53.380;10.034;2022-08-18T13:47:29;8.68;;;6.35;;
27576;SDS011;15011;53.380;10.034;2022-08-18T13:52:31;10.55;;;6.82;;
27576;SDS011;15011;53.380;10.034;2022-08-18T13:57:31;9.15;;;5.60;;
27576;SDS011;15011;53.380;10.034;2022-08-18T14:02:32;7.80;;;6.07;;
27576;SDS011;15011;53.380;10.034;2022-08-18T14:07:34;11.27;;;6.68;;
27576;SDS011;15011;53.380;10.034;2022-08-18T14:12:35;10.63;;;6.85;;
27576;SDS011;15011;53.380;10.034;2022-08-18T14:17:36;7.40;;;6.65;;
27576;SDS011;15011;53.380;10.034;2022-08-18T14:22:37;11.10;;;6.50;;
27576;SDS011;15011;53.380;10.034;2022-08-18T14:27:56;9.50;;;6.88;;
27576;SDS011;15011;53.380;10.034;2022-08-18T14:32:58;7.72;;;5.90;;
27576;SDS011;15011;53.380;10.034;2022-08-18T14:37:58;12.83;;;6.57;;
27576;SDS011;15011;53.380;10.034;2022-08-18T14:43:00;8.63;;;6.05;;
27576;SDS011;15011;53.380;10.034;2022-08-18T14:48:03;11.40;;;6.35;;
27576;SDS011;15011;53.380;10.034;2022-08-18T14:53:04;9.13;;;6.13;;
27576;SDS011;15011;53.380;10.034;2022-08-18T14:58:05;8.80;;;6.47;;
27576;SDS011;15011;53.380;10.034;2022-08-18T15:03:05;8.97;;;5.60;;
27576;SDS011;15011;53.380;10.034;2022-08-18T15:08:06;9.77;;;5.88;;
27576;SDS011;15011;53.380;10.034;2022-08-18T15:18:10;9.73;;;5.67;;
27576;SDS011;15011;53.380;10.034;2022-08-18T15:23:10;14.48;;;7.25;;
27576;SDS011;15011;53.380;10.034;2022-08-18T15:28:30;14.35;;;10.75;;
27576;SDS011;15011;53.380;10.034;2022-08-18T15:33:31;12.57;;;10.02;;
27576;SDS011;15011;53.380;10.034;2022-08-18T15:38:32;16.90;;;10.03;;
27576;SDS011;15011;53.380;10.034;2022-08-18T15:43:32;10.77;;;9.70;;
27576;SDS011;15011;53.380;10.034;2022-08-18T15:48:33;13.03;;;9.20;;
27576;SDS011;15011;53.380;10.034;2022-08-18T15:53:33;12.10;;;9.43;;
27576;SDS011;15011;53.380;10.034;2022-08-18T15:58:34;15.50;;;8.70;;
27576;SDS011;15011;53.380;10.034;2022-08-18T16:03:34;9.73;;;7.90;;
27576;SDS011;15011;53.380;10.034;2022-08-18T16:08:35;11.60;;;7.53;;
27576;SDS011;15011;53.380;10.034;2022-08-18T16:13:36;12.47;;;7.63;;
27576;SDS011;15011;53.380;10.034;2022-08-18T16:18:37;12.80;;;7.95;;
27576;SDS011;15011;53.380;10.034;2022-08-18T16:23:40;10.98;;;8.00;;
27576;SDS011;15011;53.380;10.034;2022-08-18T16:28:43;10.90;;;6.95;;
27576;SDS011;15011;53.380;10.034;2022-08-18T16:33:45;11.00;;;7.53;;
27576;SDS011;15011;53.380;10.034;2022-08-18T16:38:45;13.53;;;7.00;;
27576;SDS011;15011;53.380;10.034;2022-08-18T16:43:46;11.03;;;7.43;;
27576;SDS011;15011;53.380;10.034;2022-08-18T16:48:46;10.70;;;7.90;;
27576;SDS011;15011;53.380;10.034;2022-08-18T16:53:48;10.70;;;7.93;;
27576;SDS011;15011;53.380;10.034;2022-08-18T16:58:51;10.38;;;6.28;;
27576;SDS011;15011;53.380;10.034;2022-08-18T17:04:11;10.88;;;7.18;;
27576;SDS011;15011;53.380;10.034;2022-08-18T17:09:14;9.93;;;6.03;;
27576;SDS011;15011;53.380;10.034;2022-08-18T17:14:15;13.52;;;6.20;;
27576;SDS011;15011;53.380;10.034;2022-08-18T17:19:16;14.70;;;6.87;;
27576;SDS011;15011;53.380;10.034;2022-08-18T17:24:16;16.10;;;7.90;;
27576;SDS011;15011;53.380;10.034;2022-08-18T17:29:21;13.37;;;7.40;;
27576;SDS011;15011;53.380;10.034;2022-08-18T17:34:46;13.85;;;6.72;;
27576;SDS011;15011;53.380;10.034;2022-08-18T17:40:03;12.57;;;6.88;;
27576;SDS011;15011;53.380;10.034;2022-08-18T17:45:06;13.57;;;7.55;;
27576;SDS011;15011;53.380;10.034;2022-08-18T17:50:13;11.25;;;6.18;;
27576;SDS011;15011;53.380;10.034;2022-08-18T17:56:00;15.20;;;8.90;;
27576;SDS011;15011;53.380;10.034;2022-08-18T18:01:06;16.77;;;8.93;;
27576;SDS011;15011;53.380;10.034;2022-08-18T18:06:09;17.75;;;9.07;;
27576;SDS011;15011;53.380;10.034;2022-08-18T18:11:13;15.88;;;8.77;;
27576;SDS011;15011;53.380;10.034;2022-08-18T18:21:30;17.55;;;9.80;;
27576;SDS011;15011;53.380;10.034;2022-08-18T18:26:33;13.27;;;7.97;;
27576;SDS011;15011;53.380;10.034;2022-08-18T18:31:34;16.20;;;8.52;;
27576;SDS011;15011;53.380;10.034;2022-08-18T18:36:36;16.90;;;9.10;;
27576;SDS011;15011;53.380;10.034;2022-08-18T18:41:40;14.40;;;8.35;;
27576;SDS011;15011;53.380;10.034;2022-08-18T18:57:07;13.82;;;8.18;;
27576;SDS011;15011;53.380;10.034;2022-08-18T19:07:24;14.68;;;9.25;;
27576;SDS011;15011;53.380;10.034;2022-08-18T19:12:32;15.82;;;9.52;;
27576;SDS011;15011;53.380;10.034;2022-08-18T19:17:35;14.80;;;9.65;;
27576;SDS011;15011;53.380;10.034;2022-08-18T19:22:52;12.48;;;8.45;;
27576;SDS011;15011;53.380;10.034;2022-08-18T19:28:06;12.02;;;8.00;;
27576;SDS011;15011;53.380;10.034;2022-08-18T19:33:06;13.52;;;8.13;;
27576;SDS011;15011;53.380;10.034;2022-08-18T19:38:24;14.95;;;7.57;;
27576;SDS011;15011;53.380;10.034;2022-08-18T19:43:35;10.07;;;7.10;;
27576;SDS011;15011;53.380;10.034;2022-08-18T19:49:02;10.15;;;7.35;;
27576;SDS011;15011;53.380;10.034;2022-08-18T20:10:29;12.35;;;7.68;;
27576;SDS011;15011;53.380;10.034;2022-08-18T20:15:33;12.32;;;7.82;;
27576;SDS011;15011;53.380;10.034;2022-08-18T20:20:35;11.18;;;7.03;;
27576;SDS011;15011;53.380;10.034;2022-08-18T20:25:40;12.35;;;7.03;;
27576;SDS011;15011;53.380;10.034;2022-08-18T20:41:29;10.40;;;5.82;;
27576;SDS011;15011;53.380;10.034;2022-08-18T20:46:35;9.38;;;6.00;;
27576;SDS011;15011;53.380;10.034;2022-08-18T20:51:43;9.32;;;6.20;;
27576;SDS011;15011;53.380;10.034;2022-08-18T20:56:49;12.93;;;6.55;;
27576;SDS011;15011;53.380;10.034;2022-08-18T21:02:06;12.35;;;6.90;;
27576;SDS011;15011;53.380;10.034;2022-08-18T21:07:24;10.32;;;6.15;;
27576;SDS011;15011;53.380;10.034;2022-08-18T21:12:35;10.95;;;6.57;;
27576;SDS011;15011;53.380;10.034;2022-08-18T21:17:36;9.57;;;6.22;;
27576;SDS011;15011;53.380;10.034;2022-08-18T21:22:37;10.85;;;5.57;;
27576;SDS011;15011;53.380;10.034;2022-08-18T21:27:39;11.45;;;6.10;;
27576;SDS011;15011;53.380;10.034;2022-08-18T21:32:41;11.23;;;5.97;;
27576;SDS011;15011;53.380;10.034;2022-08-18T21:38:23;9.68;;;5.47;;
27576;SDS011;15011;53.380;10.034;2022-08-18T21:44:00;10.68;;;5.63;;
27576;SDS011;15011;53.380;10.034;2022-08-18T21:48:49;11.93;;;5.50;;
27576;SDS011;15011;53.380;10.034;2022-08-18T21:53:51;12.57;;;6.05;;
27576;SDS011;15011;53.380;10.034;2022-08-18T22:04:18;8.88;;;4.53;;
27576;SDS011;15011;53.380;10.034;2022-08-18T22:09:30;10.63;;;4.97;;
27576;SDS011;15011;53.380;10.034;2022-08-18T22:14:51;9.70;;;5.35;;
27576;SDS011;15011;53.380;10.034;2022-08-18T22:19:51;9.37;;;5.37;;
27576;SDS011;15011;53.380;10.034;2022-08-18T22:24:53;10.15;;;5.20;;
27576;SDS011;15011;53.380;10.034;2022-08-18T22:29:57;9.95;;;4.80;;
27576;SDS011;15011;53.380;10.034;2022-08-18T22:35:04;11.00;;;5.13;;
27576;SDS011;15011;53.380;10.034;2022-08-18T22:40:08;10.23;;;5.30;;
27576;SDS011;15011;53.380;10.034;2022-08-18T22:45:11;12.18;;;5.18;;
27576;SDS011;15011;53.380;10.034;2022-08-18T22:50:13;10.15;;;5.43;;
27576;SDS011;15011;53.380;10.034;2022-08-18T22:55:15;12.60;;;5.10;;
27576;SDS011;15011;53.380;10.034;2022-08-18T23:00:17;9.48;;;4.78;;
27576;SDS011;15011;53.380;10.034;2022-08-18T23:05:20;8.35;;;4.38;;
27576;SDS011;15011;53.380;10.034;2022-08-18T23:10:20;12.43;;;5.75;;
27576;SDS011;15011;53.380;10.034;2022-08-18T23:15:21;10.43;;;4.72;;
27576;SDS011;15011;53.380;10.034;2022-08-18T23:20:40;11.65;;;5.35;;
27576;SDS011;15011;53.380;10.034;2022-08-18T23:25:40;8.38;;;4.35;;
27576;SDS011;15011;53.380;10.034;2022-08-18T23:30:41;10.60;;;4.85;;
27576;SDS011;15011;53.380;10.034;2022-08-18T23:35:43;8.65;;;4.72;;
27576;SDS011;15011;53.380;10.034;2022-08-18T23:40:46;8.13;;;5.10;;
27576;SDS011;15011;53.380;10.034;2022-08-18T23:45:49;11.02;;;4.97;;
27576;SDS011;15011;53.380;10.034;2022-08-18T23:50:49;11.90;;;5.95;;
27576;SDS011;15011;53.380;10.034;2022-08-18T23:55:49;5.93;;;5.05;;
